Time;durP1;ratioP1;P1;durP2;ratioP2;P2;SDS_P1;SDS_P2;PMS_P1;PMS_P2;Temp;Humidity;BMP_temperature;BMP_pressure;BME280_temperature;BME280_humidity;BME280_pressure;Samples;Min_cycle;Max_cycle;Signal;HPM_P1;HPM_P2
2021/01/31 00:00:39;;;;;;;0.70;0.60;;;1.70;99.90;;;1.92;100.00;-20734.25;5060577;28;20286;-66
2021/01/31 00:03:09;;;;;;;0.70;0.60;;;1.50;99.90;;;1.81;100.00;-20731.03;5053597;28;20181;-66
2021/01/31 00:05:36;;;;;;;0.70;0.60;;;1.40;99.90;;;1.73;100.00;-20728.94;5067036;28;20645;-66
2021/01/31 00:08:06;;;;;;;0.70;0.60;;;1.40;99.90;;;1.82;100.00;-20731.31;5073285;28;20243;-67
2021/01/31 00:10:34;;;;;;;0.70;0.60;;;1.40;99.90;;;1.72;100.00;-20728.50;5059264;28;20186;-66
2021/01/31 00:13:04;;;;;;;0.70;0.60;;;1.30;99.90;;;1.60;100.00;-20377.84;5053111;28;20201;-66
2021/01/31 00:15:35;;;;;;;0.70;0.60;;;1.20;99.90;;;1.52;100.00;-20178.19;5052863;28;20214;-67
2021/01/31 00:18:03;;;;;;;0.70;0.60;;;1.10;99.90;;;1.62;100.00;-20553.66;5053366;28;20227;-66
2021/01/31 00:20:33;;;;;;;0.70;0.60;;;1.20;99.90;;;1.57;100.00;-20724.47;5070765;28;20216;-67
2021/01/31 00:23:01;;;;;;;0.70;0.60;;;1.20;99.90;;;1.62;100.00;-20726.00;5073602;28;20195;-67
2021/01/31 00:25:28;;;;;;;0.70;0.60;;;1.20;99.90;;;1.53;100.00;-20723.34;5069518;28;20515;-67
2021/01/31 00:27:55;;;;;;;0.70;0.60;;;1.20;99.90;;;1.66;100.00;-20726.97;5053284;28;20182;-66
2021/01/31 00:30:27;;;;;;;0.70;0.50;;;1.30;99.90;;;1.80;100.00;-20730.75;5063042;28;20209;-67
2021/01/31 00:32:56;;;;;;;0.70;0.60;;;1.40;99.90;;;1.87;100.00;-20732.84;5053450;28;20177;-66
2021/01/31 00:35:26;;;;;;;0.70;0.63;;;1.50;99.90;;;1.82;100.00;-20731.44;5053307;28;20216;-66
2021/01/31 00:37:54;;;;;;;0.70;0.60;;;1.50;99.90;;;1.73;100.00;-20728.94;5060444;28;20182;-67
2021/01/31 00:40:21;;;;;;;0.70;0.60;;;1.40;99.90;;;1.75;100.00;-20729.34;5065622;28;20673;-66
2021/01/31 00:42:48;;;;;;;0.70;0.60;;;1.40;99.90;;;1.83;100.00;-20731.72;5053096;28;20595;-67
2021/01/31 00:45:20;;;;;;;0.70;0.60;;;1.50;99.90;;;1.87;100.00;-20732.84;5063010;28;20212;-67
2021/01/31 00:47:48;;;;;;;0.70;0.60;;;1.60;99.90;;;1.90;100.00;-20733.69;5071903;28;20640;-67
2021/01/31 00:50:18;;;;;;;0.70;0.60;;;1.60;99.90;;;1.90;100.00;-20733.69;5060293;28;20284;-67
2021/01/31 00:52:45;;;;;;;0.70;0.60;;;1.50;99.90;;;1.85;100.00;-20732.28;5061163;28;20204;-67
2021/01/31 00:55:15;;;;;;;0.70;0.60;;;1.50;99.90;;;1.91;100.00;-20733.97;5072228;28;20582;-67
2021/01/31 00:57:44;;;;;;;0.70;0.60;;;1.50;99.90;;;2.03;100.00;-20737.19;5070554;28;20189;-66
2021/01/31 01:00:18;;;;;;;0.70;0.60;;;1.60;99.90;;;2.07;100.00;-20738.16;5071545;28;20676;-66
2021/01/31 01:02:47;;;;;;;0.70;0.60;;;1.70;99.90;;;2.03;100.00;-20737.03;5073157;28;20185;-67
2021/01/31 01:05:19;;;;;;;0.70;0.60;;;1.60;99.90;;;1.99;100.00;-20735.91;5062172;28;20701;-67
2021/01/31 01:07:46;;;;;;;0.70;0.70;;;1.60;99.90;;;2.02;100.00;-20736.88;5071520;28;20177;-67
2021/01/31 01:10:17;;;;;;;0.70;0.68;;;1.70;99.90;;;1.97;100.00;-20735.34;5061209;28;20207;-66
2021/01/31 01:12:45;;;;;;;0.70;0.60;;;1.60;99.90;;;2.00;100.00;-20736.19;5053026;28;20193;-66
2021/01/31 01:15:17;;;;;;;0.70;0.60;;;1.60;99.90;;;2.04;100.00;-20737.31;5053497;28;20310;-67
2021/01/31 01:17:45;;;;;;;0.70;0.60;;;1.60;99.90;;;1.99;100.00;-20736.06;5052508;28;20177;-67
2021/01/31 01:20:15;;;;;;;1.23;1.13;;;1.60;99.90;;;2.05;100.00;-20737.59;5069723;28;20649;-66
2021/01/31 01:22:42;;;;;;;0.70;0.60;;;1.60;99.90;;;1.96;100.00;-20735.06;5076518;28;20239;-66
2021/01/31 01:25:12;;;;;;;0.70;0.60;;;1.50;99.90;;;1.82;100.00;-20731.44;5066880;28;20189;-66
2021/01/31 01:27:39;;;;;;;0.70;0.60;;;1.40;99.90;;;1.71;100.00;-20728.38;5055971;28;20189;-67
2021/01/31 01:30:10;;;;;;;0.70;0.60;;;1.30;99.90;;;1.60;100.00;-20725.44;5056939;28;20693;-67
2021/01/31 01:32:38;;;;;;;0.70;0.60;;;1.20;99.90;;;1.61;100.00;-20725.72;5055434;28;20178;-67
2021/01/31 01:35:07;;;;;;;0.70;0.70;;;1.20;99.90;;;1.63;100.00;-20726.28;5066520;28;20539;-68
2021/01/31 01:37:35;;;;;;;0.70;0.60;;;1.30;99.90;;;1.58;100.00;-20724.75;5075775;28;20181;-66
2021/01/31 01:40:05;;;;;;;0.70;0.60;;;1.20;99.90;;;1.65;100.00;-20726.69;5065492;28;20654;-67
2021/01/31 01:42:33;;;;;;;0.70;0.60;;;1.30;99.90;;;1.67;100.00;-20727.25;5068490;28;20204;-68
2021/01/31 01:45:00;;;;;;;0.70;0.60;;;1.30;99.90;;;1.62;100.00;-20725.84;5070681;28;20561;-66
2021/01/31 01:47:29;;;;;;;0.70;0.57;;;1.20;99.90;;;1.64;100.00;-20726.41;5055817;28;20197;-67
2021/01/31 01:50:02;;;;;;;0.70;0.60;;;1.20;99.90;;;1.66;100.00;-20726.97;5069128;28;20189;-66
2021/01/31 01:52:35;;;;;;;0.70;0.63;;;1.30;99.90;;;1.59;100.00;-20725.03;5055085;28;20539;-66
2021/01/31 01:55:07;;;;;;;0.70;0.60;;;1.20;99.90;;;1.51;100.00;-20722.78;5056036;28;20528;-66
2021/01/31 01:57:38;;;;;;;0.70;0.60;;;1.10;99.90;;;1.31;100.00;-20717.34;5056860;28;20268;-67
2021/01/31 02:00:08;;;;;;;0.70;0.60;;;0.90;99.90;;;1.21;100.00;-20714.69;5055604;28;20209;-67
2021/01/31 02:02:40;;;;;;;0.70;0.60;;;0.90;99.90;;;1.16;100.00;-20713.28;5054783;28;20193;-67
2021/01/31 02:05:15;;;;;;;0.70;0.60;;;0.80;99.90;;;1.22;100.00;-20714.81;5054811;28;20197;-66
2021/01/31 02:07:44;;;;;;;0.70;0.60;;;0.90;99.90;;;1.24;100.00;-20715.38;5057212;28;20209;-66
2021/01/31 02:10:15;;;;;;;0.70;0.60;;;0.80;99.90;;;1.14;100.00;-20712.84;5056527;28;20194;-66
2021/01/31 02:12:43;;;;;;;0.70;0.60;;;0.80;99.90;;;1.13;100.00;-20712.44;5070657;28;20203;-66
2021/01/31 02:15:14;;;;;;;0.70;0.60;;;0.80;99.90;;;1.13;100.00;-20712.44;5075382;28;20205;-66
2021/01/31 02:17:58;;;;;;;0.70;0.60;;;0.80;99.90;;;0.91;100.00;-20706.44;5075542;28;20204;-66
2021/01/31 02:21:05;;;;;;;0.70;0.60;;;0.50;99.90;;;0.80;100.00;-20703.34;5057761;28;20205;-66
2021/01/31 02:24:22;;;;;;;0.70;0.60;;;0.50;99.90;;;0.73;100.00;-20701.66;5056491;28;20189;-66
2021/01/31 02:27:34;;;;;;;0.70;0.60;;;0.50;99.90;;;0.90;100.00;-20706.28;5056117;28;20197;-66
2021/01/31 02:30:51;;;;;;;0.70;0.60;;;0.60;99.90;;;0.71;100.00;-20700.97;5054615;28;20218;-66
2021/01/31 02:33:39;;;;;;;0.70;0.60;;;0.40;99.90;;;0.77;100.00;-20702.66;5024457;28;20216;-66
2021/01/31 02:36:12;;;;;;;0.70;0.70;;;0.50;99.90;;;0.64;100.00;-20699.00;5068720;28;20191;-66
2021/01/31 02:38:47;;;;;;;0.70;0.60;;;0.40;99.90;;;0.58;100.00;-20697.47;5059054;28;20190;-66
2021/01/31 02:41:27;;;;;;;2.35;0.90;;;0.30;99.90;;;0.60;100.00;-20697.91;5073203;28;20216;-67
2021/01/31 02:43:56;;;;;;;0.70;0.60;;;0.30;99.90;;;0.51;100.00;-20695.50;5073235;28;20213;-66
2021/01/31 02:46:31;;;;;;;0.70;0.70;;;0.20;99.90;;;0.50;100.00;-20695.25;5072913;28;20185;-66
2021/01/31 02:49:06;;;;;;;0.70;0.60;;;0.30;99.90;;;0.61;100.00;-20698.31;5073233;28;20584;-66
2021/01/31 02:51:43;;;;;;;0.70;0.60;;;0.30;99.90;;;0.56;100.00;-20696.91;5068866;28;20216;-67
2021/01/31 02:54:18;;;;;;;0.70;0.60;;;0.40;99.90;;;0.56;100.00;-20696.78;5074865;28;20184;-67
2021/01/31 02:56:54;;;;;;;0.70;0.70;;;0.30;99.90;;;0.34;100.00;-20690.91;5063201;28;20715;-67
2021/01/31 02:59:27;;;;;;;0.70;0.60;;;0.10;99.90;;;0.34;100.00;-20690.91;5053005;28;20217;-68
2021/01/31 03:02:02;;;;;;;0.70;0.60;;;0.10;99.90;;;0.33;100.00;-20690.47;5053069;28;20206;-67
2021/01/31 03:04:36;;;;;;;0.70;0.60;;;0.10;99.90;;;0.33;100.00;-20690.63;5058226;28;20180;-67
2021/01/31 03:07:11;;;;;;;0.70;0.63;;;0.10;99.90;;;0.25;100.00;-20688.38;5062663;28;20192;-68
2021/01/31 03:09:45;;;;;;;0.70;0.60;;;0.10;99.90;;;0.17;100.00;-20686.28;5073773;28;20183;-67
2021/01/31 03:12:21;;;;;;;0.70;0.60;;;0.00;99.90;;;0.22;100.00;-20687.53;5061760;28;20186;-68
2021/01/31 03:14:58;;;;;;;0.70;0.60;;;0.00;99.90;;;0.11;100.00;-20684.47;5052668;28;20209;-67
2021/01/31 03:17:30;;;;;;;0.70;0.60;;;-0.10;99.90;;;0.20;100.00;-20686.97;5062025;28;20227;-67
2021/01/31 03:20:05;;;;;;;0.70;0.60;;;0.00;99.90;;;0.17;100.00;-20686.13;5071902;28;20176;-67
2021/01/31 03:22:39;;;;;;;0.70;0.70;;;-0.10;99.90;;;0.08;100.00;-20683.75;5073890;28;20196;-67
2021/01/31 03:25:13;;;;;;;0.70;0.60;;;-0.10;99.90;;;-0.03;100.00;-20680.81;5073956;28;20177;-66
2021/01/31 03:27:42;;;;;;;0.70;0.60;;;-0.30;99.90;;;-0.06;100.00;-20679.97;5055456;28;20194;-67
2021/01/31 03:30:14;;;;;;;0.70;0.60;;;-0.30;99.90;;;-0.07;100.00;-20679.56;5059915;28;20212;-67
2021/01/31 03:32:49;;;;;;;0.70;0.60;;;-0.30;99.90;;;-0.03;100.00;-20680.69;5073675;28;20230;-68
2021/01/31 03:35:24;;;;;;;0.70;0.60;;;-0.20;99.90;;;-0.09;100.00;-20679.16;5069978;28;20227;-67
2021/01/31 03:37:59;;;;;;;0.70;0.60;;;-0.30;99.90;;;-0.02;100.00;-20680.97;5072536;28;20196;-67
2021/01/31 03:40:28;;;;;;;0.70;0.60;;;-0.20;99.90;;;-0.06;100.00;-20679.84;5072503;28;20185;-69
2021/01/31 03:42:56;;;;;;;0.70;0.60;;;-0.30;99.90;;;-0.08;100.00;-20679.41;5059865;28;20670;-67
2021/01/31 03:45:29;;;;;;;0.70;0.60;;;-0.30;99.90;;;-0.01;100.00;-20681.25;5054568;28;20241;-67
2021/01/31 03:48:02;;;;;;;0.70;0.60;;;-0.20;99.90;;;0.09;100.00;-20683.91;5054207;28;20166;-67
2021/01/31 03:50:31;;;;;;;0.70;0.60;;;-0.10;99.90;;;0.13;100.00;-20685.03;5068233;28;20227;-67
2021/01/31 03:53:00;;;;;;;0.70;0.60;;;-0.10;99.90;;;0.14;100.00;-20685.44;5073488;28;20209;-67
2021/01/31 03:55:27;;;;;;;0.70;0.70;;;0.00;99.90;;;0.13;100.00;-20685.03;5064670;28;20189;-69
2021/01/31 03:57:59;;;;;;;0.70;0.60;;;-0.10;99.90;;;0.06;100.00;-20683.06;5053719;28;20665;-67
2021/01/31 04:00:29;;;;;;;1.50;1.40;;;-0.20;99.90;;;0.09;100.00;-20684.03;5053235;28;20213;-67
2021/01/31 04:03:02;;;;;;;1.00;0.90;;;-0.20;99.90;;;0.09;100.00;-20684.03;5052383;28;20221;-68
2021/01/31 04:05:33;;;;;;;0.70;0.60;;;-0.10;99.90;;;0.12;100.00;-20684.75;5066853;28;20181;-67
2021/01/31 04:08:06;;;;;;;0.70;0.60;;;-0.10;99.90;;;0.06;100.00;-20683.06;5073581;28;20626;-68
2021/01/31 04:10:34;;;;;;;0.70;0.60;;;-0.20;99.90;;;-0.04;100.00;-20680.41;5073186;28;20713;-68
2021/01/31 04:13:03;;;;;;;0.70;0.60;;;-0.30;99.90;;;-0.11;100.00;-20678.44;5073120;28;20189;-67
2021/01/31 04:15:43;;;;;;;0.70;0.60;;;-0.30;99.90;;;-0.13;100.00;-20678.03;5071616;28;20224;-67
2021/01/31 04:18:10;;;;;;;0.70;0.60;;;-0.30;99.90;;;-0.25;100.00;-20674.81;5073405;28;20259;-68
2021/01/31 04:20:38;;;;;;;0.70;0.60;;;-0.50;99.90;;;-0.38;100.00;-20671.03;5053764;28;20198;-67
2021/01/31 04:23:05;;;;;;;0.70;0.60;;;-0.60;99.90;;;-0.41;100.00;-20670.19;5053400;28;20189;-67
2021/01/31 04:25:33;;;;;;;0.70;0.60;;;-0.60;99.90;;;-0.49;100.00;-20668.22;5053313;28;20602;-68
2021/01/31 04:28:09;;;;;;;0.70;0.60;;;-0.70;99.90;;;-0.40;100.00;-20670.59;5053584;28;20579;-68
2021/01/31 04:30:37;;;;;;;0.70;0.60;;;-0.60;99.90;;;-0.40;100.00;-20670.59;5055120;28;20574;-67
2021/01/31 04:33:04;;;;;;;0.70;0.60;;;-0.60;99.90;;;-0.47;100.00;-20668.50;5053531;28;20228;-68
2021/01/31 04:35:32;;;;;;;0.70;0.68;;;-0.70;99.90;;;-0.53;100.00;-20667.09;5065488;28;20216;-68
2021/01/31 04:38:00;;;;;;;0.70;0.60;;;-0.70;99.90;;;-0.57;100.00;-20665.97;5073696;28;20318;-68
2021/01/31 04:40:29;;;;;;;0.70;0.60;;;-0.80;99.90;;;-0.61;100.00;-20664.88;5058974;28;20221;-67
2021/01/31 04:42:59;;;;;;;0.70;0.60;;;-0.80;99.90;;;-0.61;100.00;-20664.72;5062528;28;20216;-68
2021/01/31 04:45:26;;;;;;;0.70;0.60;;;-0.80;99.90;;;-0.60;100.00;-20665.00;5053636;28;20217;-68
2021/01/31 04:48:07;;;;;;;0.70;0.60;;;-0.90;99.90;;;-0.72;100.00;-20661.78;5053329;28;20515;-67
2021/01/31 04:50:43;;;;;;;0.70;0.60;;;-0.90;99.90;;;-0.67;100.00;-20663.03;5058913;28;20260;-68
2021/01/31 04:53:25;;;;;;;0.70;0.60;;;-0.90;99.90;;;-0.64;100.00;-20664.03;5071116;28;20234;-67
2021/01/31 04:56:34;;;;;;;0.70;0.60;;;-0.90;99.90;;;-0.51;100.00;-20667.53;5063189;28;20699;-67
2021/01/31 04:59:15;;;;;;;0.85;0.85;;;-0.80;99.90;;;-0.53;100.00;-20666.97;5075360;28;20205;-69
2021/01/31 05:01:42;;;;;;;0.70;0.50;;;-0.80;99.90;;;-0.53;100.00;-20667.09;5067418;28;20200;-68
2021/01/31 05:04:13;;;;;;;0.70;0.70;;;-0.80;99.90;;;-0.52;100.00;-20667.25;5075439;28;20173;-68
2021/01/31 05:06:45;;;;;;;0.70;0.60;;;-0.80;99.90;;;-0.52;100.00;-20667.38;5075319;28;20549;-67
2021/01/31 05:09:18;;;;;;;0.70;0.60;;;-0.80;99.90;;;-0.66;100.00;-20663.47;5076990;28;20539;-68
2021/01/31 05:11:58;;;;;;;0.70;0.60;;;-0.90;99.90;;;-0.67;100.00;-20663.19;5075378;28;20189;-67
2021/01/31 05:14:55;;;;;;;0.70;0.60;;;-0.90;99.90;;;-0.73;100.00;-20661.50;5075179;28;20209;-68
2021/01/31 05:17:22;;;;;;;0.70;0.60;;;-1.00;99.90;;;-0.80;100.00;-20659.53;5056840;28;20174;-68
2021/01/31 05:19:50;;;;;;;0.70;0.60;;;-1.10;99.90;;;-0.81;100.00;-20659.25;5064765;28;20173;-68
2021/01/31 05:22:24;;;;;;;0.70;0.60;;;-1.10;99.90;;;-0.84;100.00;-20658.56;5056705;28;20209;-67
2021/01/31 05:24:54;;;;;;;0.70;0.60;;;-1.10;99.90;;;-0.85;100.00;-20658.28;5058956;28;20211;-67
2021/01/31 05:27:28;;;;;;;1.05;0.95;;;-1.10;99.90;;;-0.94;100.00;-20655.63;5074576;28;20185;-67
2021/01/31 05:29:55;;;;;;;0.70;0.60;;;-1.10;99.90;;;-0.93;100.00;-20656.03;5076470;28;20211;-68
2021/01/31 05:32:22;;;;;;;0.70;0.60;;;-1.20;99.90;;;-0.94;100.00;-20655.63;5067682;28;20657;-68
2021/01/31 05:34:51;;;;;;;0.80;0.70;;;-1.10;99.90;;;-0.92;100.00;-20656.19;5063106;28;20188;-67
2021/01/31 05:37:21;;;;;;;0.70;0.60;;;-1.10;99.90;;;-0.98;100.00;-20654.78;5069743;28;20193;-68
2021/01/31 05:39:56;;;;;;;0.70;0.60;;;-1.20;99.90;;;-0.85;100.00;-20658.13;5057383;28;20206;-68
2021/01/31 05:42:26;;;;;;;0.70;0.60;;;-1.10;99.90;;;-0.92;100.00;-20656.31;5076023;28;20212;-69
2021/01/31 05:45:03;;;;;;;0.70;0.60;;;-1.10;99.90;;;-1.00;100.00;-20654.22;5060367;28;20218;-68
2021/01/31 05:47:38;;;;;;;0.70;0.65;;;-1.10;99.90;;;-0.85;100.00;-20658.28;5055883;28;20189;-68
2021/01/31 05:50:30;;;;;;;0.80;0.70;;;-1.10;99.90;;;-0.81;100.00;-20659.41;5068056;28;20184;-67
2021/01/31 05:52:58;;;;;;;0.70;0.60;;;-1.10;99.90;;;-0.85;100.00;-20658.13;5076120;28;20177;-67
2021/01/31 05:55:31;;;;;;;0.70;0.60;;;-1.10;99.90;;;-0.79;100.00;-20659.97;5067757;28;20185;-67
2021/01/31 05:58:14;;;;;;;0.70;0.60;;;-1.00;99.90;;;-0.84;100.00;-20658.41;5057409;28;20205;-68
2021/01/31 06:00:41;;;;;;;0.70;0.60;;;-1.00;99.90;;;-0.89;100.00;-20657.00;5055625;28;20661;-67
2021/01/31 06:03:10;;;;;;;0.70;0.60;;;-1.10;99.90;;;-0.91;100.00;-20656.47;5069320;28;20243;-68
2021/01/31 06:05:38;;;;;;;0.70;0.60;;;-1.20;99.90;;;-0.93;100.00;-20655.91;5061181;28;20271;-66
2021/01/31 06:08:25;;;;;;;0.70;0.60;;;-1.20;99.90;;;-1.04;100.00;-20652.94;5091604;28;20276;-66
2021/01/31 06:11:02;;;;;;;0.65;0.60;;;-1.30;99.90;;;-1.15;100.00;-20649.88;5074095;28;20185;-69
2021/01/31 06:13:30;;;;;;;0.70;0.55;;;-1.40;99.90;;;-1.23;100.00;-20647.78;5075461;28;20676;-67
2021/01/31 06:16:00;;;;;;;0.70;0.60;;;-1.30;99.90;;;-1.39;100.00;-20643.28;5073485;28;20218;-66
2021/01/31 06:18:33;;;;;;;1.10;1.00;;;-1.50;99.90;;;-1.36;100.00;-20644.13;5075740;28;20192;-66
2021/01/31 06:21:09;;;;;;;0.70;0.60;;;-1.60;99.90;;;-1.51;100.00;-20640.19;5073208;28;20205;-66
2021/01/31 06:23:41;;;;;;;0.70;0.60;;;-1.60;99.90;;;-1.54;100.00;-20639.22;5074283;28;20234;-67
2021/01/31 06:26:22;;;;;;;0.70;0.60;;;-1.70;99.90;;;-1.67;100.00;-20635.72;5069660;28;20221;-67
2021/01/31 06:28:53;;;;;;;0.70;0.60;;;-1.70;99.90;;;-1.58;100.00;-20638.25;5053980;28;20220;-67
2021/01/31 06:31:34;;;;;;;0.70;0.60;;;-1.70;99.90;;;-1.47;100.00;-20641.31;5069560;28;20212;-68
2021/01/31 06:34:01;;;;;;;0.70;0.60;;;-1.50;99.90;;;-1.37;100.00;-20643.97;5072060;28;20215;-68
2021/01/31 06:36:57;;;;;;;0.70;0.60;;;-1.60;99.90;;;-1.37;100.00;-20643.97;5063329;28;20201;-66
2021/01/31 06:39:42;;;;;;;1.17;1.08;;;-1.50;99.90;;;-1.34;100.00;-20644.81;5055473;28;20487;-67
2021/01/31 06:42:22;;;;;;;0.70;0.60;;;-1.40;99.90;;;-1.26;100.00;-20646.94;5053721;28;20209;-67
2021/01/31 06:45:05;;;;;;;1.48;1.00;;;-1.50;99.90;;;-1.22;100.00;-20648.06;5055812;28;20288;-67
2021/01/31 06:48:04;;;;;;;0.70;0.60;;;-1.40;99.90;;;-1.30;100.00;-20645.81;5073713;28;20189;-68
2021/01/31 06:50:42;;;;;;;0.70;0.60;;;-1.40;99.90;;;-1.18;100.00;-20649.16;5052790;28;20201;-68
2021/01/31 06:53:26;;;;;;;0.70;0.60;;;-1.30;99.90;;;-1.19;100.00;-20648.88;5056307;28;20646;-68
2021/01/31 06:56:23;;;;;;;0.70;0.60;;;-1.40;99.90;;;-1.27;100.00;-20646.78;5055741;28;20743;-67
2021/01/31 06:59:10;;;;;;;0.70;0.60;;;-1.40;99.90;;;-1.29;100.00;-20646.09;5051148;28;20221;-67
2021/01/31 07:02:13;;;;;;;0.70;0.60;;;-1.40;99.90;;;-1.44;100.00;-20642.03;5074035;28;20201;-69
2021/01/31 07:05:02;;;;;;;0.70;0.60;;;-1.60;99.90;;;-1.35;100.00;-20644.41;5068095;28;20260;-67
2021/01/31 07:08:23;;;;;;;0.70;0.60;;;-1.60;99.90;;;-1.34;100.00;-20644.81;5062391;28;20319;-67
2021/01/31 07:11:21;;;;;;;1.17;1.05;;;-1.50;99.90;;;-1.40;100.00;-20643.16;5034013;28;20698;-67
2021/01/31 07:14:33;;;;;;;0.70;0.60;;;-1.60;99.90;;;-1.43;100.00;-20642.16;5060464;28;20221;-67
2021/01/31 07:17:16;;;;;;;0.70;0.60;;;-1.60;99.90;;;-1.59;100.00;-20637.81;5071476;28;20645;-68
2021/01/31 07:19:55;;;;;;;0.65;0.60;;;-1.80;99.90;;;-1.61;100.00;-20637.41;5070071;28;20268;-70
2021/01/31 07:22:31;;;;;;;0.70;0.60;;;-1.80;99.90;;;-1.50;100.00;-20640.47;5074675;28;20251;-68
2021/01/31 07:25:05;;;;;;;0.70;0.60;;;-1.70;99.90;;;-1.44;100.00;-20642.03;5071936;28;20697;-68
2021/01/31 07:27:43;;;;;;;0.70;0.60;;;-1.60;99.90;;;-1.42;100.00;-20642.59;5067175;28;20180;-68
2021/01/31 07:30:20;;;;;;;0.70;0.70;;;-1.70;99.90;;;-1.46;100.00;-20641.59;5068027;28;20266;-68
2021/01/31 07:33:13;;;;;;;0.70;0.60;;;-1.70;99.90;;;-1.38;100.00;-20643.56;5061856;28;20303;-69
2021/01/31 07:35:56;;;;;;;0.70;0.60;;;-1.60;99.90;;;-1.33;100.00;-20644.97;5043300;28;20280;-68
2021/01/31 07:38:32;;;;;;;0.60;0.60;;;-1.60;99.90;;;-1.24;100.00;-20647.50;5059188;28;20192;-68
2021/01/31 07:41:01;;;;;;;0.60;0.60;;;-1.50;99.90;;;-1.19;100.00;-20648.88;5061761;28;20193;-68
2021/01/31 07:43:33;;;;;;;0.70;0.60;;;-1.50;99.90;;;-1.08;100.00;-20651.97;5060067;28;20272;-68
2021/01/31 07:46:05;;;;;;;0.70;0.60;;;-1.40;99.90;;;-1.01;100.00;-20653.78;5061726;28;20178;-70
2021/01/31 07:48:57;;;;;;;0.70;0.60;;;-1.30;99.90;;;-1.02;100.00;-20653.66;5063371;28;20626;-68
2021/01/31 07:52:04;;;;;;;0.70;0.60;;;-1.20;99.90;;;-1.16;100.00;-20649.72;5060601;28;20182;-68
2021/01/31 07:54:36;;;;;;;0.60;0.50;;;-1.40;99.90;;;-1.14;100.00;-20650.28;5063969;28;20242;-67
2021/01/31 07:57:33;;;;;;;0.70;0.60;;;-1.50;99.90;;;-1.18;100.00;-20649.16;5059605;28;20218;-67
2021/01/31 08:00:10;;;;;;;0.63;0.60;;;-1.50;99.90;;;-1.11;100.00;-20651.13;5064634;28;20209;-67
2021/01/31 08:02:42;;;;;;;0.70;0.60;;;-1.40;99.90;;;-0.95;100.00;-20655.47;5063057;28;20234;-67
2021/01/31 08:05:14;;;;;;;0.70;0.60;;;-1.30;99.90;;;-1.00;100.00;-20654.06;5062790;28;20258;-67
2021/01/31 08:08:07;;;;;;;0.60;0.60;;;-1.30;99.90;;;-1.00;100.00;-20654.22;5066414;28;20181;-68
2021/01/31 08:10:49;;;;;;;0.70;0.70;;;-1.30;99.90;;;-0.94;100.00;-20655.75;5070547;28;20255;-67
2021/01/31 08:13:36;;;;;;;0.80;0.80;;;-1.20;99.90;;;-0.87;100.00;-20657.56;5064222;28;20187;-68
2021/01/31 08:16:41;;;;;;;0.60;0.55;;;-1.20;99.90;;;-0.79;100.00;-20659.81;5052959;28;20554;-67
2021/01/31 08:19:24;;;;;;;0.70;0.60;;;-1.10;99.90;;;-0.78;100.00;-20660.09;5057457;28;20182;-68
2021/01/31 08:21:54;;;;;;;0.70;0.60;;;-1.10;99.90;;;-0.64;100.00;-20663.88;5053952;28;20193;-69
2021/01/31 08:25:01;;;;;;;0.60;0.55;;;-1.00;99.90;;;-0.54;100.00;-20666.81;5058261;28;20242;-69
2021/01/31 08:27:51;;;;;;;0.70;0.70;;;-0.90;99.90;;;-0.51;100.00;-20667.66;5052814;28;20551;-69
2021/01/31 08:30:32;;;;;;;0.70;0.60;;;-0.80;99.90;;;-0.41;100.00;-20670.19;5052799;28;20308;-69
2021/01/31 08:33:34;;;;;;;0.70;0.60;;;-0.70;99.90;;;-0.32;100.00;-20672.84;5052699;28;20170;-68
2021/01/31 08:36:11;;;;;;;0.70;0.60;;;-0.60;99.90;;;-0.27;100.00;-20674.09;5069266;28;20208;-69
2021/01/31 08:38:49;;;;;;;0.70;0.60;;;-0.60;99.90;;;-0.25;100.00;-20674.66;5071704;28;20694;-68
2021/01/31 08:41:37;;;;;;;0.70;0.60;;;-0.60;99.90;;;-0.22;100.00;-20675.50;5071675;28;20271;-69
2021/01/31 08:44:51;;;;;;;0.70;0.60;;;-0.50;99.90;;;-0.05;100.00;-20680.25;5059634;28;20213;-69
2021/01/31 08:47:18;;;;;;;0.70;0.60;;;-0.40;99.90;;;-0.07;100.00;-20679.72;5071958;28;20652;-68
2021/01/31 08:49:56;;;;;;;0.70;0.60;;;-0.40;99.90;;;0.03;100.00;-20682.22;5067508;28;20181;-68
2021/01/31 08:52:24;;;;;;;0.70;0.70;;;-0.30;99.90;;;0.07;100.00;-20683.34;5070677;28;20185;-70
2021/01/31 08:55:03;;;;;;;0.70;0.70;;;-0.30;99.90;;;0.18;100.00;-20686.41;5062044;28;20197;-71
2021/01/31 08:57:30;;;;;;;0.70;0.60;;;-0.20;99.90;;;0.16;100.00;-20685.88;5052496;28;20217;-70
2021/01/31 09:00:06;;;;;;;0.70;0.60;;;-0.20;99.90;;;0.17;100.00;-20686.13;5054863;28;20213;-71
2021/01/31 09:02:34;;;;;;;0.70;0.70;;;-0.20;99.90;;;0.22;100.00;-20687.53;5058292;28;20590;-70
2021/01/31 09:05:10;;;;;;;0.70;0.60;;;-0.10;99.90;;;0.35;100.00;-20691.19;5058765;28;20273;-71
2021/01/31 09:07:41;;;;;;;0.77;0.77;;;-0.10;99.90;;;0.31;100.00;-20689.91;5057012;28;20184;-71
2021/01/31 09:10:17;;;;;;;0.70;0.60;;;0.00;99.90;;;0.57;100.00;-20697.06;5064173;28;20189;-70
2021/01/31 09:12:44;;;;;;;0.70;0.60;;;0.10;99.90;;;0.63;100.00;-20698.75;5061907;28;20242;-71
2021/01/31 09:15:21;;;;;;;0.70;0.68;;;0.20;99.90;;;0.61;100.00;-20698.19;5060720;28;20285;-70
2021/01/31 09:17:49;;;;;;;0.70;0.60;;;0.30;99.90;;;0.78;100.00;-20702.94;5061484;28;20192;-70
2021/01/31 09:20:25;;;;;;;0.70;0.60;;;0.30;99.90;;;1.02;100.00;-20709.38;5059513;28;20271;-70
2021/01/31 09:22:59;;;;;;;0.88;0.88;;;0.40;99.90;;;1.06;100.00;-20710.63;5055554;28;20216;-73
2021/01/31 09:25:32;;;;;;;0.70;0.60;;;0.60;99.90;;;1.10;100.00;-20711.59;5056566;28;20718;-73
2021/01/31 09:28:04;;;;;;;0.70;0.50;;;0.70;99.90;;;1.22;100.00;-20714.97;5060215;28;20217;-71
2021/01/31 09:30:33;;;;;;;0.70;0.60;;;0.80;99.90;;;1.45;100.00;-20721.38;5055727;28;20720;-71
2021/01/31 09:33:06;;;;;;;0.70;0.60;;;0.90;99.90;;;1.47;100.00;-20721.66;5056023;28;20181;-72
2021/01/31 09:35:37;;;;;;;1.75;1.65;;;1.00;99.90;;;1.52;100.00;-20723.19;5057698;28;20186;-71
2021/01/31 09:38:30;;;;;;;0.70;0.63;;;1.10;99.90;;;1.66;100.00;-20726.97;5057630;28;20201;-71
2021/01/31 09:41:00;;;;;;;0.70;0.70;;;1.10;99.90;;;1.53;100.00;-20723.47;5051987;28;20215;-71
2021/01/31 09:43:31;;;;;;;0.70;0.60;;;1.10;99.90;;;1.60;100.00;-20725.28;5056614;28;20271;-72
2021/01/31 09:46:01;;;;;;;0.70;0.60;;;1.20;99.90;;;1.82;100.00;-20731.44;5069783;28;20190;-71
2021/01/31 09:48:31;;;;;;;0.70;0.60;;;1.30;99.90;;;1.83;100.00;-20731.72;5059077;28;20308;-71
2021/01/31 09:51:02;;;;;;;0.70;0.60;;;1.40;99.90;;;1.99;100.00;-20735.91;5061095;28;20178;-71
2021/01/31 09:53:38;;;;;;;0.70;0.60;;;1.50;99.90;;;2.09;100.00;-20738.72;5071747;28;20234;-70
2021/01/31 09:56:09;;;;;;;0.70;0.60;;;1.50;99.90;;;2.18;100.00;-20741.22;5058758;28;20239;-69
2021/01/31 09:58:46;;;;;;;0.70;0.60;;;1.60;99.90;;;2.31;100.00;-20744.84;5071984;28;20258;-70
2021/01/31 10:01:22;;;;;;;0.70;0.60;;;1.70;99.90;;;2.42;100.00;-20747.94;5069416;28;20235;-69
2021/01/31 10:03:56;;;;;;;0.70;0.60;;;1.80;99.90;;;2.46;100.00;-20748.91;5076147;28;20181;-69
2021/01/31 10:06:24;;;;;;;0.60;0.50;;;1.80;99.90;;;2.40;100.00;-20747.38;5069036;28;20177;-69
2021/01/31 10:08:58;;;;;;;0.70;0.60;;;1.80;99.90;;;2.63;100.00;-20753.50;5071560;28;20488;-69
2021/01/31 10:11:38;;;;;;;0.98;0.88;;;1.90;99.90;;;2.93;100.00;-20761.75;5071630;28;20177;-70
2021/01/31 10:14:08;;;;;;;0.70;0.60;;;2.10;99.90;;;3.20;100.00;-20769.13;5072719;28;20295;-69
2021/01/31 10:16:38;;;;;;;0.70;0.60;;;2.40;99.90;;;3.28;100.00;-20771.22;5066878;28;20247;-69
2021/01/31 10:19:16;;;;;;;0.70;0.70;;;2.40;99.90;;;3.02;100.00;-20764.13;5069299;28;20487;-69
2021/01/31 10:21:52;;;;;;;1.27;1.17;;;2.40;99.90;;;3.73;100.00;-20783.66;5067321;28;20458;-69
2021/01/31 10:24:31;;;;;;;1.00;0.90;;;2.60;99.90;;;3.59;100.00;-20779.75;5061919;28;20432;-69
2021/01/31 10:27:11;;;;;;;0.70;0.60;;;2.80;99.90;;;3.93;100.00;-20789.06;5063191;28;20442;-69
2021/01/31 10:29:38;;;;;;;0.70;0.60;;;3.10;99.90;;;4.28;100.00;-20798.69;5064964;28;20915;-69
2021/01/31 10:32:24;;;;;;;0.70;0.60;;;3.30;99.90;;;4.40;100.00;-20801.91;5069021;28;20417;-70
2021/01/31 10:34:55;;;;;;;0.70;0.60;;;3.50;99.90;;;4.22;100.00;-20796.88;5067533;28;20448;-69
2021/01/31 10:37:34;;;;;;;0.70;0.60;;;3.40;99.90;;;4.13;100.00;-20794.50;5058511;28;20437;-68
2021/01/31 10:40:04;;;;;;;0.80;0.80;;;3.40;99.90;;;4.51;100.00;-20804.97;5059922;28;20790;-69
2021/01/31 10:42:31;;;;;;;0.70;0.63;;;3.30;99.90;;;4.30;100.00;-20799.25;5064208;28;20502;-68
2021/01/31 10:45:06;;;;;;;0.70;0.53;;;3.10;99.90;;;3.72;100.00;-20783.38;5061734;28;20459;-68
2021/01/31 10:47:33;;;;;;;1.10;1.00;;;2.80;99.90;;;3.68;100.00;-20782.25;5061314;28;20450;-68